Delray, WV (26714)

4:59 AM EST on February 13, 2016 (GMT -0500)
Our Lady's Mount, Short Mountain WV | | Change Station
CLOSE
Current Station
Personal Weather Station
Location: Delray, WV
Elevation: 1201 ft
Nearby Weather Stations

Elev 1201 ft 39.18 °N, 78.64 °W | Updated 30 seconds ago

Mostly Cloudy
Mostly Cloudy
13.8 °F
Feels Like 0 °F
N
12.5
Wind Variable Wind from NNE

Today
High -- | Low -- °F
--% Chance of Precip.
Yesterday
High -- | Low -- °F
Precip. -- in
Pressure 30.07 in
Visibility 10.0 miles
Clouds Scattered Clouds 4500 ft
Windchill 0 °F
Dew Point 4 °F
Humidity 64%
Rainfall 0.00 in
Snow Depth Not available.
7:09 AM 5:48 PM
Waxing Crescent, 29% visible
METAR KOKV 130935Z AUTO 29022G28KT 10SM SCT045 M07/M15 A3007 RMK AO2
Pressure 30.07 in
Visibility 10.0 miles
Clouds Scattered Clouds 4500 ft
Windchill 0 °F
Dew Point 4 °F
Humidity 64%
Rainfall 0.00 in
Snow Depth Not available.
7:09 AM 5:48 PM
Waxing Crescent, 29% visible
METAR KOKV 130935Z AUTO 29022G28KT 10SM SCT045 M07/M15 A3007 RMK AO2

10-Day Weather Forecast

Almanac

Astronomy

Feb. 13, 2016 Rise Set
Actual Time
Civil Twilight
Nautical Twilight
Astronomical Twilight
Moon
Length of Visible Light
Length of Day
Tomorrow will be .
, % of the Moon is Illuminated

Today's Extremes

State Highs State Lows

Community

WunderPhotos

Upload Photos

1,892,536 photos uploaded!

WunderBlog® & News

Nearby

Air Quality

  Air Quality AQ Index Pollutant
Not available.

Snow Depth

Station Depth Elevation

Earthquake Activity

City Distance Mag. Time & Date
Minimum magnitude displayed is 2.5.

Coastal Water Temperatures

Place Temperature

Stations

Nearby Weather Stations

Station Location Temp. Windchill Dew Point Humidity Wind Precip. Elev Updated Type
                   

Watches & Warnings

Wind Chill Advisory
Issued: 3:20 AM EST Feb. 13, 2016 – National Weather Service

... Wind Chill Advisory remains in effect until 9 am EST Sunday...

* wind chills... 10 to 20 degrees below zero.

* Winds... northwest 20 to 30 mph with gusts up to 50 mph.

* Temperatures... teens today falling into the single digits
tonight into Sunday.

* Timing... today through Sunday morning.

* Impacts... frost bite and hypothermia are possible if
precautions are not taken.

Precautionary/preparedness actions...

A Wind Chill Advisory means that very cold air and strong winds
will combine to generate low wind chills. This will result in
frost bite and lead to hypothermia if precautions are not taken.
If you must venture outdoors... make sure you wear a hat and
gloves.